createdAt,value
2019-03-29T04:10:11.850Z,0.00
2019-03-29T04:11:11.825Z,0.00
2019-03-29T04:12:11.894Z,0.00
2019-03-29T04:13:11.801Z,0.00
2019-03-29T04:14:11.841Z,0.00
2019-03-29T04:15:11.801Z,0.00
2019-03-29T04:16:11.777Z,0.00
2019-03-29T04:17:11.767Z,0.00
2019-03-29T04:18:15.423Z,0.00
2019-03-29T04:19:11.749Z,0.00
2019-03-29T04:20:11.758Z,0.00
2019-03-29T04:21:11.716Z,0.00
2019-03-29T04:22:11.723Z,0.00
2019-03-29T04:23:11.730Z,0.00
2019-03-29T04:24:11.683Z,0.00
2019-03-29T04:25:11.692Z,0.00
2019-03-29T04:26:11.667Z,0.00
2019-03-29T04:27:11.661Z,0.00
2019-03-29T04:28:11.645Z,0.00
2019-03-29T04:29:11.638Z,0.00
2019-03-29T04:30:11.638Z,0.00
2019-03-29T04:31:11.627Z,0.00
2019-03-29T04:32:11.602Z,0.00
2019-03-29T04:33:11.629Z,0.00
2019-03-29T04:34:11.589Z,0.00
2019-03-29T04:35:11.607Z,0.00
2019-03-29T04:36:11.559Z,0.00
2019-03-29T04:37:11.551Z,0.00
2019-03-29T04:38:11.545Z,0.00
2019-03-29T04:39:11.528Z,0.00
2019-03-29T04:40:11.538Z,0.00
2019-03-29T04:41:11.527Z,0.00
2019-03-29T04:42:11.495Z,0.00
2019-03-29T04:43:11.482Z,0.00
2019-03-29T04:44:11.472Z,0.00
2019-03-29T04:45:11.479Z,0.00
2019-03-29T04:46:11.460Z,0.00
2019-03-29T04:47:11.469Z,0.00
2019-03-29T04:48:11.439Z,0.00
2019-03-29T04:49:11.422Z,0.00
2019-03-29T04:50:11.528Z,0.00
2019-03-29T04:51:11.417Z,0.00
2019-03-29T04:52:11.466Z,0.00
2019-03-29T04:53:11.391Z,0.00
2019-03-29T04:54:11.368Z,0.00
2019-03-29T04:55:11.389Z,0.00
2019-03-29T04:56:11.350Z,0.00
2019-03-29T04:57:11.345Z,0.00
2019-03-29T04:58:11.329Z,0.00
2019-03-29T04:59:11.328Z,0.00
2019-03-29T05:00:11.321Z,0.00
2019-03-29T05:01:21.277Z,0.00
2019-03-29T05:02:11.284Z,0.00
2019-03-29T05:03:11.275Z,0.00
2019-03-29T05:04:11.266Z,0.00
2019-03-29T05:05:11.279Z,0.00
2019-03-29T05:06:11.245Z,0.00
2019-03-29T05:07:11.234Z,0.00
2019-03-29T05:08:11.224Z,0.00
2019-03-29T05:09:11.208Z,0.00
2019-03-29T05:10:21.259Z,0.00
2019-03-29T05:11:12.206Z,0.00
2019-03-29T05:12:11.179Z,0.00
2019-03-29T05:13:11.166Z,0.00
2019-03-29T05:14:11.157Z,0.00
2019-03-29T05:15:11.162Z,0.00
2019-03-29T05:16:11.138Z,0.00
2019-03-29T05:17:11.141Z,0.00
2019-03-29T05:18:11.129Z,0.00
2019-03-29T05:19:11.109Z,0.00
2019-03-29T05:20:11.113Z,5.62
2019-03-29T05:21:11.153Z,5.62
2019-03-29T05:22:11.072Z,5.62
2019-03-29T05:23:11.069Z,5.62
2019-03-29T05:24:11.061Z,5.62
2019-03-29T05:25:11.076Z,5.62
2019-03-29T05:26:11.034Z,5.62
2019-03-29T05:27:11.031Z,5.62
2019-03-29T05:28:11.010Z,5.62
2019-03-29T05:29:11.003Z,11.25
2019-03-29T05:30:11.018Z,11.25
2019-03-29T05:31:10.975Z,11.25
2019-03-29T05:32:10.969Z,11.25
2019-03-29T05:33:10.982Z,11.25
2019-03-29T05:34:10.944Z,11.25
2019-03-29T05:35:10.952Z,11.25
2019-03-29T05:36:10.930Z,16.88
2019-03-29T05:37:10.914Z,16.88
2019-03-29T05:38:10.908Z,16.88
2019-03-29T05:39:10.899Z,16.88
2019-03-29T05:40:10.914Z,16.88
2019-03-29T05:41:10.873Z,16.88
2019-03-29T05:42:10.873Z,16.88
2019-03-29T05:43:10.858Z,22.50
2019-03-29T05:44:10.862Z,22.50
2019-03-29T05:45:10.847Z,22.50
2019-03-29T05:46:10.825Z,22.50
2019-03-29T05:47:10.810Z,22.50
2019-03-29T05:48:11.839Z,22.50
2019-03-29T05:49:10.786Z,28.12
2019-03-29T05:50:10.791Z,28.12
2019-03-29T05:51:10.805Z,28.12
2019-03-29T05:52:10.754Z,28.12
2019-03-29T05:53:10.746Z,28.12
2019-03-29T05:54:10.743Z,33.75
2019-03-29T05:55:10.847Z,33.75
2019-03-29T05:56:10.729Z,33.75
2019-03-29T05:57:10.702Z,33.75
2019-03-29T05:58:10.693Z,33.75
2019-03-29T05:59:10.687Z,33.75
2019-03-29T06:00:10.678Z,39.38
2019-03-29T06:01:10.682Z,39.38
2019-03-29T06:02:10.658Z,39.38
2019-03-29T06:03:10.642Z,39.38
2019-03-29T06:04:10.627Z,39.38
2019-03-29T06:05:10.620Z,45.00
2019-03-29T06:06:10.628Z,45.00
2019-03-29T06:07:10.598Z,45.00
2019-03-29T06:08:10.589Z,45.00
2019-03-29T06:09:10.575Z,45.00
2019-03-29T06:10:10.564Z,45.00
2019-03-29T06:11:10.672Z,45.00
2019-03-29T06:12:10.546Z,50.62
2019-03-29T06:13:10.532Z,50.62
2019-03-29T06:14:10.527Z,50.62
2019-03-29T06:15:10.515Z,50.62
2019-03-29T06:16:10.535Z,50.62
2019-03-29T06:17:10.495Z,50.62
2019-03-29T06:18:10.481Z,50.62
2019-03-29T06:19:10.470Z,56.25
2019-03-29T06:20:10.461Z,56.25
2019-03-29T06:21:10.470Z,56.25
2019-03-29T06:22:10.440Z,56.25
2019-03-29T06:23:10.429Z,56.25
2019-03-29T06:24:10.418Z,56.25
2019-03-29T06:25:10.409Z,56.25
2019-03-29T06:26:10.413Z,56.25
2019-03-29T06:27:10.384Z,56.25
2019-03-29T06:28:10.374Z,61.88
2019-03-29T06:29:10.367Z,61.88
2019-03-29T06:30:10.361Z,61.88
2019-03-29T06:31:10.361Z,61.88
2019-03-29T06:32:10.335Z,67.50
2019-03-29T06:33:10.323Z,67.50
2019-03-29T06:34:10.315Z,67.50
2019-03-29T06:35:10.302Z,67.50
2019-03-29T06:36:10.311Z,67.50
2019-03-29T06:37:10.300Z,67.50
2019-03-29T06:38:10.275Z,78.75
2019-03-29T06:39:10.259Z,78.75
2019-03-29T06:40:10.249Z,73.12
2019-03-29T06:41:10.293Z,73.12
2019-03-29T06:42:10.229Z,73.12
2019-03-29T06:43:10.237Z,73.12
2019-03-29T06:44:10.210Z,73.12
2019-03-29T06:45:10.204Z,73.12
2019-03-29T06:46:10.210Z,73.12
2019-03-29T06:47:10.179Z,73.12
2019-03-29T06:48:10.176Z,73.12
2019-03-29T06:49:10.158Z,78.75
2019-03-29T06:50:10.151Z,73.12
2019-03-29T06:51:10.157Z,73.12
2019-03-29T06:52:10.144Z,73.12
2019-03-29T06:53:10.118Z,73.12
2019-03-29T06:54:10.112Z,78.75
2019-03-29T06:55:10.109Z,78.75
2019-03-29T06:56:10.107Z,78.75
2019-03-29T06:57:10.078Z,78.75
2019-03-29T06:58:10.068Z,84.38
2019-03-29T06:59:10.058Z,84.38
2019-03-29T07:00:10.048Z,84.38
2019-03-29T07:01:10.059Z,90.00
2019-03-29T07:02:10.026Z,90.00
2019-03-29T07:03:10.034Z,95.62
2019-03-29T07:04:10.006Z,95.62
2019-03-29T07:05:09.996Z,95.62
2019-03-29T07:06:10.078Z,95.62
2019-03-29T07:07:09.981Z,101.25
2019-03-29T07:08:09.991Z,101.25
2019-03-29T07:09:09.961Z,101.25
2019-03-29T07:10:09.951Z,101.25
2019-03-29T07:11:17.151Z,101.25
2019-03-29T07:12:10.936Z,106.88
2019-03-29T07:13:09.923Z,106.88
2019-03-29T07:14:09.919Z,112.50
2019-03-29T07:15:09.895Z,118.12
2019-03-29T07:16:09.917Z,118.12
2019-03-29T07:17:10.440Z,118.12
2019-03-29T07:18:09.872Z,123.75
2019-03-29T07:19:09.857Z,129.38
2019-03-29T07:20:09.859Z,129.38
2019-03-29T07:21:20.811Z,135.00
2019-03-29T07:22:10.823Z,135.00
2019-03-29T07:23:09.813Z,140.62
2019-03-29T07:24:09.813Z,146.25
2019-03-29T07:25:09.800Z,146.25
2019-03-29T07:26:09.807Z,146.25
2019-03-29T07:27:09.786Z,146.25
2019-03-29T07:28:09.762Z,151.88
2019-03-29T07:29:09.754Z,157.50
2019-03-29T07:30:09.741Z,157.50
2019-03-29T07:31:09.758Z,151.88
2019-03-29T07:32:09.735Z,157.50
2019-03-29T07:33:09.711Z,157.50
2019-03-29T07:34:09.700Z,157.50
2019-03-29T07:35:09.687Z,157.50
2019-03-29T07:36:09.706Z,157.50
2019-03-29T07:37:09.673Z,157.50
2019-03-29T07:38:09.674Z,157.50
2019-03-29T07:39:09.646Z,157.50
2019-03-29T07:40:09.635Z,157.50
2019-03-29T07:41:09.622Z,157.50
2019-03-29T07:42:09.642Z,163.12
2019-03-29T07:43:09.610Z,163.12
2019-03-29T07:44:09.591Z,163.12
2019-03-29T07:45:10.427Z,163.12
2019-03-29T07:46:09.572Z,163.12
2019-03-29T07:47:09.576Z,163.12
2019-03-29T07:48:09.547Z,163.12
2019-03-29T07:49:09.543Z,163.12
2019-03-29T07:50:09.543Z,163.12
2019-03-29T07:51:09.518Z,168.75
2019-03-29T07:52:09.534Z,168.75
2019-03-29T07:53:09.495Z,168.75
2019-03-29T07:54:09.491Z,174.38
2019-03-29T07:55:09.479Z,174.38
2019-03-29T07:56:09.463Z,180.00
2019-03-29T07:57:09.470Z,185.62
2019-03-29T07:58:09.451Z,185.62
2019-03-29T07:59:09.431Z,191.25
2019-03-29T08:00:09.421Z,196.88
2019-03-29T08:01:09.418Z,196.88
2019-03-29T08:02:09.419Z,196.88
2019-03-29T08:03:09.385Z,191.25
2019-03-29T08:04:09.375Z,196.88
2019-03-29T08:05:09.376Z,202.50
2019-03-29T08:06:09.356Z,202.50
2019-03-29T08:07:09.361Z,202.50
2019-03-29T08:08:22.829Z,196.88
2019-03-29T08:09:21.576Z,208.12
2019-03-29T08:10:18.970Z,213.75
2019-03-29T08:11:10.297Z,208.12
2019-03-29T08:12:09.301Z,196.88
2019-03-29T08:13:09.285Z,196.88
2019-03-29T08:14:09.266Z,208.12
2019-03-29T08:15:10.082Z,208.12
2019-03-29T08:16:09.242Z,202.50
2019-03-29T08:17:09.252Z,202.50
2019-03-29T08:18:09.219Z,191.25
2019-03-29T08:19:09.209Z,191.25
2019-03-29T08:20:37.483Z,191.25
2019-03-29T08:21:10.193Z,191.25
2019-03-29T08:22:09.192Z,191.25
2019-03-29T08:23:09.163Z,191.25
2019-03-29T08:24:09.154Z,191.25
2019-03-29T08:25:09.144Z,196.88
2019-03-29T08:26:09.132Z,202.50
2019-03-29T08:27:09.141Z,213.75
2019-03-29T08:28:09.106Z,247.50
2019-03-29T08:29:09.151Z,258.75
2019-03-29T08:30:09.088Z,270.00
2019-03-29T08:31:09.095Z,281.25
2019-03-29T08:32:09.099Z,286.88
2019-03-29T08:33:09.053Z,292.50
2019-03-29T08:34:09.043Z,298.12
2019-03-29T08:35:09.036Z,303.75
2019-03-29T08:36:09.034Z,315.00
2019-03-29T08:37:09.030Z,343.12
2019-03-29T08:38:09.000Z,371.25
2019-03-29T08:39:10.361Z,478.12
2019-03-29T08:40:08.976Z,978.75
2019-03-29T08:41:08.982Z,1243.12
2019-03-29T08:42:08.981Z,1299.38
2019-03-29T08:43:08.945Z,1231.88
2019-03-29T08:44:11.717Z,1254.38
2019-03-29T08:45:08.925Z,1395.00
2019-03-29T08:46:08.915Z,1400.62
2019-03-29T08:47:08.942Z,1428.75
2019-03-29T08:48:08.896Z,1372.50
2019-03-29T08:49:08.888Z,1417.50
2019-03-29T08:50:08.876Z,1608.75
2019-03-29T08:51:08.869Z,1603.12
2019-03-29T08:52:08.878Z,1608.75
2019-03-29T08:53:08.849Z,1715.62
2019-03-29T08:54:08.838Z,1732.50
2019-03-29T08:55:08.825Z,1681.88
2019-03-29T08:56:08.812Z,1687.50
2019-03-29T08:57:10.595Z,1614.38
2019-03-29T08:58:08.787Z,1591.88
2019-03-29T08:59:08.783Z,1710.00
2019-03-29T09:00:08.769Z,1710.00
2019-03-29T09:01:08.761Z,1693.12
2019-03-29T09:02:08.768Z,1676.25
2019-03-29T09:03:08.732Z,1738.12
2019-03-29T09:04:08.724Z,1738.12
2019-03-29T09:05:08.718Z,1805.62
2019-03-29T09:06:08.711Z,1890.00
2019-03-29T09:07:08.712Z,1794.38
2019-03-29T09:08:08.687Z,1676.25
2019-03-29T09:09:11.850Z,1704.38
2019-03-29T09:10:08.663Z,1811.25
2019-03-29T09:11:08.655Z,1816.88
2019-03-29T09:12:14.587Z,1800.00
2019-03-29T09:13:09.632Z,1800.00
2019-03-29T09:14:08.618Z,1777.50
2019-03-29T09:15:08.606Z,1800.00
2019-03-29T09:16:08.594Z,1732.50
2019-03-29T09:17:08.628Z,1732.50
2019-03-29T09:18:08.575Z,1878.75
2019-03-29T09:19:08.572Z,2041.88
2019-03-29T09:20:10.534Z,1946.25
2019-03-29T09:21:08.543Z,1884.38
2019-03-29T09:22:08.536Z,1957.50
2019-03-29T09:23:10.434Z,1974.38
2019-03-29T09:24:21.094Z,1963.12
2019-03-29T09:25:09.501Z,2109.38
2019-03-29T09:26:08.492Z,2081.25
2019-03-29T09:27:08.481Z,2041.88
2019-03-29T09:28:08.489Z,2002.50
2019-03-29T09:29:08.473Z,2081.25
2019-03-29T09:30:08.451Z,2047.50
2019-03-29T09:31:08.445Z,1996.88
2019-03-29T09:32:08.430Z,1974.38
2019-03-29T09:33:08.437Z,1968.75
2019-03-29T09:34:08.412Z,1974.38
2019-03-29T09:35:08.412Z,2002.50
2019-03-29T09:36:08.393Z,2002.50
2019-03-29T09:37:08.381Z,1985.62
2019-03-29T09:38:08.389Z,1833.75
2019-03-29T09:39:08.360Z,1895.62
2019-03-29T09:40:08.356Z,2030.62
2019-03-29T09:41:08.356Z,1991.25
2019-03-29T09:42:09.745Z,1940.62
2019-03-29T09:43:08.762Z,1974.38
2019-03-29T09:44:08.311Z,1985.62
2019-03-29T09:45:08.304Z,1923.75
2019-03-29T09:46:08.313Z,1946.25
2019-03-29T09:47:08.288Z,2103.75
2019-03-29T09:48:08.295Z,2120.62
2019-03-29T09:49:08.581Z,1957.50
2019-03-29T09:50:10.313Z,2019.38
2019-03-29T09:51:08.241Z,2075.62
2019-03-29T09:52:08.231Z,2148.75
2019-03-29T09:53:08.256Z,2064.38
2019-03-29T09:54:08.209Z,1957.50
2019-03-29T09:55:08.200Z,2008.12
2019-03-29T09:56:08.201Z,1940.62
2019-03-29T09:57:09.956Z,1980.00
2019-03-29T09:58:08.191Z,2137.50
2019-03-29T09:59:08.171Z,2154.38
2019-03-29T10:00:19.173Z,2030.62
2019-03-29T10:01:09.192Z,2064.38
2019-03-29T10:02:08.131Z,2058.75
2019-03-29T10:03:08.138Z,2109.38
2019-03-29T10:04:08.121Z,2295.00
2019-03-29T10:05:08.135Z,2323.12
2019-03-29T10:06:08.094Z,2244.38
2019-03-29T10:07:08.083Z,2261.25
2019-03-29T10:08:08.094Z,2289.38
2019-03-29T10:09:08.071Z,2278.12
2019-03-29T10:10:08.064Z,2205.00
2019-03-29T10:11:08.069Z,2171.25
2019-03-29T10:12:08.034Z,2193.75
2019-03-29T10:13:08.041Z,2266.88
2019-03-29T10:14:08.019Z,2205.00
2019-03-29T10:15:08.009Z,2199.38
2019-03-29T10:16:07.993Z,2221.88
2019-03-29T10:17:07.992Z,2210.62
2019-03-29T10:18:07.992Z,2283.75
2019-03-29T10:19:07.967Z,2328.75
2019-03-29T10:20:07.958Z,2244.38
2019-03-29T10:21:07.945Z,2244.38
2019-03-29T10:22:07.937Z,2205.00
2019-03-29T10:23:07.957Z,2075.62
2019-03-29T10:24:07.916Z,2171.25
2019-03-29T10:25:19.184Z,2379.38
2019-03-29T10:26:08.900Z,2435.62
2019-03-29T10:27:07.890Z,2323.12
2019-03-29T10:28:07.896Z,2075.62
2019-03-29T10:29:07.903Z,2154.38
2019-03-29T10:30:07.857Z,2334.38
2019-03-29T10:31:07.847Z,2193.75
2019-03-29T10:32:09.581Z,2154.38
2019-03-29T10:33:07.846Z,2430.00
2019-03-29T10:34:07.826Z,2520.00
2019-03-29T10:35:07.835Z,2446.88
2019-03-29T10:36:07.809Z,2396.25
2019-03-29T10:37:07.795Z,2475.00
2019-03-29T10:38:07.781Z,2671.88
2019-03-29T10:39:07.787Z,2570.62
2019-03-29T10:40:07.762Z,2401.88
2019-03-29T10:41:07.814Z,2373.75
2019-03-29T10:42:07.743Z,2390.62
2019-03-29T10:43:07.739Z,2176.88
2019-03-29T10:44:07.739Z,2266.88
2019-03-29T10:45:07.713Z,2362.50
2019-03-29T10:46:07.708Z,2283.75
2019-03-29T10:47:07.722Z,2334.38
2019-03-29T10:48:07.684Z,2283.75
2019-03-29T10:49:07.693Z,2115.00
2019-03-29T10:50:07.664Z,2019.38
2019-03-29T10:51:08.493Z,2238.75
2019-03-29T10:52:07.659Z,2317.50
2019-03-29T10:53:07.675Z,2373.75
2019-03-29T10:54:07.648Z,2328.75
2019-03-29T10:55:07.623Z,2244.38
2019-03-29T10:56:07.615Z,2238.75
2019-03-29T10:57:07.599Z,2120.62
2019-03-29T10:58:09.650Z,2345.62
2019-03-29T10:59:07.619Z,2553.75
2019-03-29T11:00:07.575Z,2435.62
2019-03-29T11:01:07.560Z,2368.12
2019-03-29T11:02:07.551Z,2250.00
2019-03-29T11:03:07.541Z,2334.38
2019-03-29T11:04:07.547Z,2750.62
2019-03-29T11:05:07.539Z,2683.12
2019-03-29T11:06:07.523Z,2272.50
2019-03-29T11:07:07.505Z,2188.12
2019-03-29T11:08:11.167Z,2238.75
2019-03-29T11:09:07.504Z,2311.88
2019-03-29T11:10:07.481Z,2424.38
2019-03-29T11:11:07.477Z,2441.25
2019-03-29T11:12:07.461Z,2385.00
2019-03-29T11:13:13.038Z,2328.75
2019-03-29T11:14:08.455Z,2446.88
2019-03-29T11:15:07.429Z,2548.12
2019-03-29T11:16:07.425Z,2250.00
2019-03-29T11:17:07.421Z,2193.75
2019-03-29T11:18:07.400Z,2188.12
2019-03-29T11:19:07.409Z,2148.75
2019-03-29T11:20:07.382Z,2323.12
2019-03-29T11:21:07.375Z,2238.75
2019-03-29T11:22:07.360Z,2086.88
2019-03-29T11:23:07.396Z,2047.50
2019-03-29T11:24:09.189Z,2115.00
2019-03-29T11:25:07.332Z,2182.50
2019-03-29T11:26:07.323Z,2238.75
2019-03-29T11:27:07.322Z,2328.75
2019-03-29T11:28:07.309Z,2323.12
2019-03-29T11:29:07.354Z,2199.38
2019-03-29T11:30:07.284Z,2373.75
2019-03-29T11:31:07.275Z,1063.12
2019-03-29T11:32:07.266Z,2250.00
2019-03-29T11:33:07.262Z,2238.75
2019-03-29T11:34:07.282Z,2216.25
2019-03-29T11:35:07.266Z,1687.50
2019-03-29T11:36:07.228Z,1642.50
2019-03-29T11:37:07.254Z,2193.75
2019-03-29T11:38:07.207Z,2390.62
2019-03-29T11:39:07.287Z,2064.38
2019-03-29T11:40:07.211Z,2019.38
2019-03-29T11:41:07.193Z,2098.12
2019-03-29T11:42:07.170Z,2165.62
2019-03-29T11:43:07.162Z,2131.88
2019-03-29T11:44:07.153Z,2148.75
2019-03-29T11:45:07.163Z,2137.50
2019-03-29T11:46:07.132Z,2283.75
2019-03-29T11:47:07.137Z,2109.38
2019-03-29T11:48:09.173Z,2019.38
2019-03-29T11:49:07.107Z,2160.00
2019-03-29T11:50:07.112Z,2210.62
2019-03-29T11:51:18.710Z,2227.50
2019-03-29T11:52:08.076Z,2165.62
2019-03-29T11:53:07.090Z,1710.00
2019-03-29T11:54:07.055Z,2317.50
2019-03-29T11:55:07.063Z,2362.50
2019-03-29T11:56:07.038Z,2289.38
2019-03-29T11:57:07.027Z,2070.00
2019-03-29T11:58:07.026Z,2193.75
2019-03-29T11:59:07.057Z,1996.88
2019-03-29T12:00:07.017Z,2036.25
2019-03-29T12:01:06.991Z,2115.00
2019-03-29T12:02:06.990Z,2047.50
2019-03-29T12:03:09.154Z,2373.75
2019-03-29T12:04:06.962Z,2418.75
2019-03-29T12:05:07.018Z,2300.62
2019-03-29T12:06:06.945Z,2345.62
2019-03-29T12:07:06.935Z,2548.12
2019-03-29T12:08:06.934Z,2401.88
2019-03-29T12:09:06.919Z,2036.25
2019-03-29T12:10:06.921Z,1985.62
2019-03-29T12:11:06.931Z,2216.25
2019-03-29T12:12:06.891Z,2075.62
2019-03-29T12:13:06.928Z,2407.50
2019-03-29T12:14:06.870Z,2480.62
2019-03-29T12:15:06.875Z,2272.50
2019-03-29T12:16:06.850Z,2306.25
2019-03-29T12:17:06.841Z,2424.38
2019-03-29T12:18:06.847Z,2345.62
2019-03-29T12:19:06.821Z,2109.38
2019-03-29T12:20:06.829Z,1867.50
2019-03-29T12:21:06.904Z,517.50
2019-03-29T12:22:06.800Z,1963.12
2019-03-29T12:23:06.788Z,2053.12
2019-03-29T12:24:06.796Z,2160.00
2019-03-29T12:25:06.793Z,2227.50
2019-03-29T12:26:06.767Z,2244.38
2019-03-29T12:27:06.747Z,2075.62
2019-03-29T12:28:06.735Z,2075.62
2019-03-29T12:29:06.726Z,2058.75
2019-03-29T12:30:06.753Z,2103.75
2019-03-29T12:31:06.707Z,2221.88
2019-03-29T12:32:06.702Z,2148.75
2019-03-29T12:33:06.764Z,1946.25
2019-03-29T12:34:06.684Z,1878.75
2019-03-29T12:35:09.854Z,1878.75
2019-03-29T12:36:06.668Z,1856.25
2019-03-29T12:37:06.653Z,2092.50
2019-03-29T12:38:06.642Z,2154.38
2019-03-29T12:39:06.633Z,2137.50
2019-03-29T12:40:06.638Z,2103.75
2019-03-29T12:41:06.657Z,1912.50
2019-03-29T12:42:06.613Z,2008.12
2019-03-29T12:43:06.596Z,2109.38
2019-03-29T12:44:06.584Z,2086.88
2019-03-29T12:45:06.593Z,2041.88
2019-03-29T12:46:06.570Z,2070.00
2019-03-29T12:47:06.558Z,2008.12
2019-03-29T12:48:06.564Z,2154.38
2019-03-29T12:49:06.537Z,675.00
2019-03-29T12:50:06.545Z,1963.12
2019-03-29T12:51:06.521Z,1980.00
2019-03-29T12:52:06.513Z,1968.75
2019-03-29T12:53:06.499Z,1968.75
2019-03-29T12:54:06.502Z,1839.38
2019-03-29T12:55:06.507Z,1929.38
2019-03-29T12:56:06.474Z,1935.00
2019-03-29T12:57:07.005Z,1783.12
2019-03-29T12:58:06.456Z,1856.25
2019-03-29T12:59:06.441Z,613.12
2019-03-29T13:00:06.480Z,691.88
2019-03-29T13:01:06.479Z,303.75
2019-03-29T13:02:06.423Z,309.38
2019-03-29T13:03:06.420Z,1794.38
2019-03-29T13:04:09.572Z,1811.25
2019-03-29T13:05:06.405Z,1828.12
2019-03-29T13:06:06.384Z,1732.50
2019-03-29T13:07:06.363Z,1777.50
2019-03-29T13:08:06.353Z,1732.50
2019-03-29T13:09:06.355Z,1766.25
2019-03-29T13:10:06.352Z,1794.38
2019-03-29T13:11:06.337Z,1805.62
2019-03-29T13:12:06.326Z,1738.12
2019-03-29T13:13:06.308Z,1738.12
2019-03-29T13:14:10.675Z,1794.38
2019-03-29T13:15:06.301Z,1884.38
2019-03-29T13:16:06.276Z,1766.25
2019-03-29T13:17:06.267Z,1687.50
2019-03-29T13:18:06.265Z,1811.25
2019-03-29T13:19:06.245Z,1620.00
2019-03-29T13:20:06.252Z,1192.50
2019-03-29T13:21:06.227Z,691.88
2019-03-29T13:22:06.221Z,264.38
2019-03-29T13:23:06.209Z,225.00
2019-03-29T13:24:06.207Z,208.12
2019-03-29T13:25:07.630Z,202.50
2019-03-29T13:26:06.177Z,196.88
2019-03-29T13:27:06.168Z,191.25
2019-03-29T13:28:06.160Z,191.25
2019-03-29T13:29:06.145Z,191.25
2019-03-29T13:30:06.179Z,191.25
2019-03-29T13:31:06.126Z,191.25
2019-03-29T13:32:06.113Z,315.00
2019-03-29T13:33:06.105Z,1220.62
2019-03-29T13:34:06.104Z,1732.50
2019-03-29T13:35:06.093Z,1715.62
2019-03-29T13:36:06.104Z,1586.25
2019-03-29T13:37:06.064Z,1603.12
2019-03-29T13:38:06.053Z,1518.75
2019-03-29T13:39:06.048Z,900.00
2019-03-29T13:40:06.045Z,1366.88
2019-03-29T13:41:07.130Z,489.38
2019-03-29T13:42:06.024Z,281.25
2019-03-29T13:43:06.001Z,196.88
2019-03-29T13:44:05.992Z,191.25
2019-03-29T13:45:05.986Z,202.50
2019-03-29T13:46:06.064Z,213.75
2019-03-29T13:47:05.963Z,292.50
2019-03-29T13:48:05.971Z,275.62
2019-03-29T13:49:06.117Z,247.50
2019-03-29T13:50:05.929Z,241.88
2019-03-29T13:51:05.937Z,208.12
2019-03-29T13:52:05.922Z,140.62
2019-03-29T13:53:05.915Z,146.25
2019-03-29T13:54:05.901Z,135.00
2019-03-29T13:55:05.878Z,123.75
2019-03-29T13:56:05.883Z,118.12
2019-03-29T13:57:05.863Z,112.50
2019-03-29T13:58:05.869Z,106.88
2019-03-29T13:59:05.839Z,106.88
2019-03-29T14:00:05.827Z,101.25
2019-03-29T14:01:05.848Z,101.25
2019-03-29T14:02:05.809Z,101.25
2019-03-29T14:03:05.800Z,101.25
2019-03-29T14:04:05.787Z,101.25
2019-03-29T14:05:05.778Z,106.88
2019-03-29T14:06:05.781Z,101.25
2019-03-29T14:07:05.778Z,95.62
2019-03-29T14:08:05.744Z,101.25
2019-03-29T14:09:05.739Z,95.62
2019-03-29T14:10:05.723Z,90.00
2019-03-29T14:11:05.731Z,90.00
2019-03-29T14:12:05.708Z,95.62
2019-03-29T14:13:05.709Z,95.62
2019-03-29T14:14:05.689Z,90.00
2019-03-29T14:15:05.672Z,90.00
2019-03-29T14:16:05.679Z,90.00
2019-03-29T14:17:05.649Z,90.00
2019-03-29T14:18:05.645Z,90.00
2019-03-29T14:19:05.638Z,90.00
2019-03-29T14:20:05.618Z,90.00
2019-03-29T14:21:05.625Z,84.38
2019-03-29T14:22:05.596Z,84.38
2019-03-29T14:23:05.587Z,84.38
2019-03-29T14:24:05.589Z,84.38
2019-03-29T14:25:05.616Z,84.38
2019-03-29T14:26:05.587Z,84.38
2019-03-29T14:27:05.540Z,84.38
2019-03-29T14:28:05.533Z,78.75
2019-03-29T14:29:05.520Z,78.75
2019-03-29T14:30:05.668Z,78.75
2019-03-29T14:31:05.519Z,78.75
2019-03-29T14:32:05.498Z,78.75
2019-03-29T14:33:05.483Z,78.75
2019-03-29T14:34:05.467Z,78.75
2019-03-29T14:35:05.457Z,78.75
2019-03-29T14:36:05.465Z,78.75
2019-03-29T14:37:05.440Z,78.75
2019-03-29T14:38:05.436Z,73.12
2019-03-29T14:39:05.416Z,73.12
2019-03-29T14:40:05.412Z,73.12
2019-03-29T14:41:05.413Z,73.12
2019-03-29T14:42:05.388Z,73.12
2019-03-29T14:43:05.383Z,73.12
2019-03-29T14:44:05.370Z,73.12
2019-03-29T14:45:05.352Z,73.12
2019-03-29T14:46:05.379Z,73.12
2019-03-29T14:47:05.332Z,73.12
2019-03-29T14:48:05.320Z,73.12
2019-03-29T14:49:05.328Z,73.12
2019-03-29T14:50:05.307Z,73.12
2019-03-29T14:51:05.302Z,73.12
2019-03-29T14:52:05.275Z,67.50
2019-03-29T14:53:05.265Z,67.50
2019-03-29T14:54:05.260Z,67.50
2019-03-29T14:55:05.248Z,67.50
2019-03-29T14:56:05.277Z,67.50
2019-03-29T14:57:05.641Z,67.50
2019-03-29T14:58:05.215Z,67.50
2019-03-29T14:59:05.204Z,67.50
2019-03-29T15:00:05.193Z,67.50
2019-03-29T15:01:05.200Z,67.50
2019-03-29T15:02:05.179Z,61.88
2019-03-29T15:03:05.166Z,61.88
2019-03-29T15:04:05.152Z,61.88
2019-03-29T15:05:05.137Z,61.88
2019-03-29T15:06:05.162Z,61.88
2019-03-29T15:07:05.119Z,61.88
2019-03-29T15:08:05.122Z,61.88
2019-03-29T15:09:05.093Z,61.88
2019-03-29T15:10:05.090Z,61.88
2019-03-29T15:11:05.099Z,61.88
2019-03-29T15:12:06.990Z,61.88
2019-03-29T15:13:05.056Z,61.88
2019-03-29T15:14:05.044Z,61.88
2019-03-29T15:15:06.371Z,61.88
2019-03-29T15:16:05.043Z,61.88
2019-03-29T15:17:05.023Z,61.88
2019-03-29T15:18:05.000Z,61.88
2019-03-29T15:19:05.004Z,61.88
2019-03-29T15:20:04.984Z,61.88
2019-03-29T15:21:05.031Z,61.88
2019-03-29T15:22:04.967Z,61.88
2019-03-29T15:23:05.020Z,61.88
2019-03-29T15:24:04.939Z,61.88
2019-03-29T15:25:04.933Z,56.25
2019-03-29T15:26:04.914Z,56.25
2019-03-29T15:27:04.920Z,56.25
2019-03-29T15:28:04.905Z,56.25
2019-03-29T15:29:04.909Z,56.25
2019-03-29T15:30:04.870Z,56.25
2019-03-29T15:31:04.869Z,56.25
2019-03-29T15:32:04.869Z,56.25
2019-03-29T15:33:04.839Z,56.25
2019-03-29T15:34:04.835Z,56.25
2019-03-29T15:35:04.891Z,56.25
2019-03-29T15:36:04.807Z,56.25
2019-03-29T15:37:04.811Z,56.25
2019-03-29T15:38:04.787Z,50.62
2019-03-29T15:39:04.775Z,50.62
2019-03-29T15:40:04.838Z,50.62
2019-03-29T15:41:04.758Z,50.62
2019-03-29T15:42:04.764Z,50.62
2019-03-29T15:43:04.745Z,50.62
2019-03-29T15:44:04.722Z,50.62
2019-03-29T15:45:04.713Z,50.62
2019-03-29T15:46:04.704Z,50.62
2019-03-29T15:47:04.708Z,50.62
2019-03-29T15:48:04.681Z,50.62
2019-03-29T15:49:04.673Z,50.62
2019-03-29T15:50:04.686Z,50.62
2019-03-29T15:51:04.647Z,50.62
2019-03-29T15:52:04.651Z,50.62
2019-03-29T15:53:04.628Z,50.62
2019-03-29T15:54:04.618Z,50.62
2019-03-29T15:55:04.610Z,50.62
2019-03-29T15:56:04.603Z,50.62
2019-03-29T15:57:04.601Z,50.62
2019-03-29T15:58:04.571Z,50.62
2019-03-29T15:59:04.641Z,50.62
2019-03-29T16:00:04.552Z,45.00
2019-03-29T16:01:04.545Z,45.00
2019-03-29T16:02:04.569Z,45.00
2019-03-29T16:03:04.524Z,45.00
2019-03-29T16:04:04.506Z,45.00
2019-03-29T16:05:04.498Z,45.00
2019-03-29T16:06:04.486Z,45.00
2019-03-29T16:07:04.490Z,45.00
2019-03-29T16:08:04.473Z,45.00
2019-03-29T16:09:04.461Z,45.00
2019-03-29T16:10:04.445Z,45.00
2019-03-29T16:11:04.433Z,45.00
2019-03-29T16:12:04.437Z,45.00
2019-03-29T16:13:04.446Z,45.00
2019-03-29T16:14:04.397Z,45.00
2019-03-29T16:15:04.396Z,39.38
2019-03-29T16:16:04.393Z,39.38
2019-03-29T16:17:04.393Z,39.38
2019-03-29T16:18:04.359Z,39.38
2019-03-29T16:19:04.350Z,39.38
2019-03-29T16:20:04.345Z,39.38
2019-03-29T16:21:04.326Z,39.38
2019-03-29T16:22:05.982Z,39.38
2019-03-29T16:23:04.308Z,39.38
2019-03-29T16:24:04.292Z,39.38
2019-03-29T16:25:04.296Z,39.38
2019-03-29T16:26:04.277Z,39.38
2019-03-29T16:27:04.276Z,39.38
2019-03-29T16:28:04.249Z,39.38
2019-03-29T16:29:04.238Z,39.38
2019-03-29T16:30:04.242Z,39.38
2019-03-29T16:31:04.223Z,39.38
2019-03-29T16:32:04.249Z,39.38
2019-03-29T16:33:04.199Z,39.38
2019-03-29T16:34:04.219Z,33.75
2019-03-29T16:35:04.175Z,33.75
2019-03-29T16:36:04.165Z,33.75
2019-03-29T16:37:04.180Z,33.75
2019-03-29T16:38:04.146Z,33.75
2019-03-29T16:39:04.131Z,33.75
2019-03-29T16:40:04.123Z,33.75
2019-03-29T16:41:04.109Z,33.75
2019-03-29T16:42:04.124Z,33.75